createdAt,value
2024-05-09T00:01:47.895Z,3.50
2024-05-09T00:04:36.609Z,3.70
2024-05-09T00:07:25.042Z,3.67
2024-05-09T00:10:22.361Z,3.27
2024-05-09T00:13:20.452Z,3.47
2024-05-09T00:16:09.790Z,3.70
2024-05-09T00:18:58.530Z,3.73
2024-05-09T00:21:47.120Z,3.57
2024-05-09T00:24:35.694Z,4.20
2024-05-09T00:27:24.186Z,3.63
2024-05-09T00:30:24.173Z,3.70
2024-05-09T00:33:20.534Z,3.90
2024-05-09T00:36:10.067Z,3.83
2024-05-09T00:38:58.559Z,3.73
2024-05-09T00:41:47.213Z,4.43
2024-05-09T00:44:35.603Z,3.77
2024-05-09T00:47:27.463Z,3.50
2024-05-09T00:50:22.737Z,4.03
2024-05-09T00:53:20.093Z,3.90
2024-05-09T00:56:10.803Z,4.23
2024-05-09T00:58:59.510Z,4.10
2024-05-09T01:01:48.944Z,3.40
2024-05-09T01:04:40.456Z,3.90
2024-05-09T01:07:29.203Z,3.60
2024-05-09T01:10:24.154Z,4.20
2024-05-09T01:13:20.099Z,4.20
2024-05-09T01:16:09.133Z,4.40
2024-05-09T01:18:58.126Z,4.37
2024-05-09T01:21:49.402Z,4.60
2024-05-09T01:24:40.919Z,3.67
2024-05-09T01:27:29.484Z,3.80
2024-05-09T01:30:24.295Z,4.20
2024-05-09T01:33:16.534Z,4.10
2024-05-09T01:36:05.374Z,4.67
2024-05-09T01:38:54.088Z,4.40
2024-05-09T01:41:45.382Z,4.43
2024-05-09T01:44:34.163Z,4.00
2024-05-09T01:47:22.796Z,4.20
2024-05-09T01:50:16.311Z,3.93
2024-05-09T01:53:05.292Z,4.27
2024-05-09T01:55:53.850Z,3.90
2024-05-09T01:58:46.356Z,4.37
2024-05-09T02:01:55.580Z,4.17
2024-05-09T02:04:43.719Z,4.43
2024-05-09T02:07:32.348Z,3.80
2024-05-09T02:10:26.355Z,4.53
2024-05-09T02:13:20.614Z,3.87
2024-05-09T02:16:15.094Z,4.40
2024-05-09T02:19:03.664Z,3.87
2024-05-09T02:21:52.173Z,3.93
2024-05-09T02:24:40.765Z,4.30
2024-05-09T02:27:29.248Z,4.07
2024-05-09T02:30:25.900Z,4.53
2024-05-09T02:33:26.953Z,3.60
2024-05-09T02:36:15.812Z,4.23
2024-05-09T02:39:01.557Z,4.10
2024-05-09T02:41:49.986Z,3.93
2024-05-09T02:44:35.896Z,4.07
2024-05-09T02:47:24.771Z,4.10
2024-05-09T02:50:16.219Z,4.67
2024-05-09T02:53:08.934Z,4.10
2024-05-09T02:55:55.873Z,4.60
2024-05-09T02:58:44.419Z,4.87
2024-05-09T03:01:30.365Z,4.47
2024-05-09T03:04:26.080Z,4.60
2024-05-09T03:07:19.002Z,4.63
2024-05-09T03:10:18.252Z,3.80
2024-05-09T03:13:09.109Z,3.97
2024-05-09T03:15:57.966Z,4.23
2024-05-09T03:18:46.887Z,4.80
2024-05-09T03:21:37.898Z,3.90
2024-05-09T03:24:32.642Z,4.13
2024-05-09T03:27:21.063Z,4.03
2024-05-09T03:30:09.685Z,3.80
2024-05-09T03:32:58.240Z,5.00
2024-05-09T03:35:44.409Z,4.43
2024-05-09T03:38:32.758Z,4.90
2024-05-09T03:41:24.736Z,4.60
2024-05-09T03:44:13.317Z,4.40
2024-05-09T03:46:59.365Z,4.67
2024-05-09T03:49:47.761Z,4.60
2024-05-09T03:52:36.220Z,4.90
2024-05-09T03:55:22.160Z,5.00
2024-05-09T03:58:14.773Z,4.33
2024-05-09T04:01:00.691Z,3.83
2024-05-09T04:03:49.368Z,5.20
2024-05-09T04:06:37.698Z,3.87
2024-05-09T04:09:23.645Z,4.43
2024-05-09T04:12:12.332Z,4.43
2024-05-09T04:15:00.740Z,4.37
2024-05-09T04:17:51.839Z,4.30
2024-05-09T04:20:40.371Z,4.47
2024-05-09T04:23:30.115Z,4.00
2024-05-09T04:26:16.121Z,4.30
2024-05-09T04:29:04.735Z,4.87
2024-05-09T04:31:55.884Z,4.73
2024-05-09T04:34:41.906Z,4.17
2024-05-09T04:37:30.669Z,4.53
2024-05-09T04:40:24.344Z,4.57
2024-05-09T04:43:21.464Z,4.07
2024-05-09T04:46:07.425Z,4.43
2024-05-09T04:48:58.863Z,4.30
2024-05-09T04:51:44.683Z,4.60
2024-05-09T04:54:36.436Z,4.53
2024-05-09T04:57:22.614Z,4.50
2024-05-09T05:00:14.943Z,4.57
2024-05-09T05:03:14.204Z,4.90
2024-05-09T05:06:04.484Z,4.83
2024-05-09T05:08:52.950Z,5.10
2024-05-09T05:11:39.027Z,4.70
2024-05-09T05:14:28.097Z,4.00
2024-05-09T05:17:16.764Z,4.30
2024-05-09T05:20:03.425Z,4.50
2024-05-09T05:22:57.909Z,5.13
2024-05-09T05:25:47.944Z,3.97
2024-05-09T05:28:43.551Z,4.27
2024-05-09T05:31:38.371Z,4.73
2024-05-09T05:34:27.355Z,3.97
2024-05-09T05:37:14.086Z,4.67
2024-05-09T05:40:09.425Z,3.97
2024-05-09T05:42:58.117Z,4.20
2024-05-09T05:45:46.852Z,4.00
2024-05-09T05:48:32.999Z,4.43
2024-05-09T05:51:21.537Z,4.37
2024-05-09T05:54:07.498Z,4.27
2024-05-09T05:57:00.056Z,3.80
2024-05-09T05:59:46.107Z,4.13
2024-05-09T06:02:36.292Z,3.97
2024-05-09T06:05:23.422Z,4.47
2024-05-09T06:08:12.869Z,4.27
2024-05-09T06:10:58.716Z,4.20
2024-05-09T06:13:49.817Z,4.67
2024-05-09T06:16:35.803Z,4.10
2024-05-09T06:19:24.662Z,4.03
2024-05-09T06:22:11.315Z,4.07
2024-05-09T06:24:59.523Z,4.07
2024-05-09T06:27:45.408Z,4.30
2024-05-09T06:30:41.248Z,4.17
2024-05-09T06:33:30.035Z,4.63
2024-05-09T06:36:18.781Z,4.17
2024-05-09T06:39:04.924Z,4.30
2024-05-09T06:41:53.462Z,4.43
2024-05-09T06:44:39.313Z,4.20
2024-05-09T06:47:30.705Z,3.80
2024-05-09T06:50:23.511Z,4.37
2024-05-09T06:53:17.486Z,4.37
2024-05-09T06:56:03.896Z,4.40
2024-05-09T06:58:54.547Z,3.87
2024-05-09T07:01:40.839Z,4.57
2024-05-09T07:04:32.117Z,4.10
2024-05-09T07:07:17.862Z,4.37
2024-05-09T07:10:09.967Z,3.93
2024-05-09T07:12:57.969Z,4.13
2024-05-09T07:15:46.633Z,4.20
2024-05-09T07:18:32.371Z,4.10
2024-05-09T07:21:23.769Z,3.53
2024-05-09T07:24:15.298Z,4.10
2024-05-09T07:27:04.610Z,3.87
2024-05-09T07:29:50.296Z,3.83
2024-05-09T07:32:39.136Z,3.87
2024-05-09T07:35:25.461Z,3.37
2024-05-09T07:38:18.251Z,3.63
2024-05-09T07:41:04.752Z,4.03
2024-05-09T07:43:53.481Z,3.17
2024-05-09T07:47:47.626Z,3.27
2024-05-09T07:51:32.582Z,3.27
2024-05-09T07:55:47.825Z,3.50
2024-05-09T07:58:36.192Z,3.00
2024-05-09T08:01:22.435Z,3.27
2024-05-09T08:04:11.325Z,3.90
2024-05-09T08:06:57.238Z,3.20
2024-05-09T08:09:45.992Z,3.00
2024-05-09T08:12:34.591Z,4.50
2024-05-09T08:15:23.025Z,4.33
2024-05-09T08:18:09.819Z,3.10
2024-05-09T08:20:58.859Z,3.40
2024-05-09T08:23:47.483Z,3.83
2024-05-09T08:26:33.294Z,3.67
2024-05-09T08:29:24.490Z,2.93
2024-05-09T08:32:13.738Z,3.27
2024-05-09T08:35:02.351Z,3.10
2024-05-09T08:37:50.048Z,3.37
2024-05-09T08:40:39.273Z,2.80
2024-05-09T08:43:26.973Z,3.47
2024-05-09T08:46:19.080Z,2.97
2024-05-09T08:49:05.374Z,3.10
2024-05-09T08:51:54.110Z,3.00
2024-05-09T08:54:41.047Z,3.40
2024-05-09T08:57:30.467Z,3.17
2024-05-09T09:03:11.820Z,3.20
2024-05-09T09:06:05.642Z,3.03
2024-05-09T09:08:54.922Z,2.80
2024-05-09T09:11:40.714Z,2.83
2024-05-09T09:14:29.241Z,2.63
2024-05-09T09:17:15.742Z,2.70
2024-05-09T09:20:13.985Z,2.83
2024-05-09T09:23:02.529Z,3.00
2024-05-09T09:25:52.155Z,2.60
2024-05-09T09:28:38.488Z,2.63
2024-05-09T09:31:27.331Z,3.10
2024-05-09T09:34:13.335Z,2.70
2024-05-09T09:37:09.954Z,2.60
2024-05-09T09:39:58.058Z,2.20
2024-05-09T09:42:49.309Z,2.30
2024-05-09T09:45:36.701Z,2.50
2024-05-09T09:48:26.338Z,2.70
2024-05-09T09:51:14.039Z,2.60
2024-05-09T09:54:06.727Z,2.60
2024-05-09T09:56:55.880Z,2.10
2024-05-09T09:59:46.999Z,2.20
2024-05-09T10:02:35.389Z,2.03
2024-05-09T10:05:23.653Z,2.20
2024-05-09T10:08:14.542Z,2.43
2024-05-09T10:11:04.465Z,2.43
2024-05-09T10:13:55.114Z,2.10
2024-05-09T10:16:44.185Z,2.43
2024-05-09T10:19:34.400Z,2.10
2024-05-09T10:22:27.369Z,2.00
2024-05-09T10:25:16.157Z,2.20
2024-05-09T10:28:05.627Z,2.30
2024-05-09T10:31:04.639Z,2.40
2024-05-09T10:33:52.678Z,2.47
2024-05-09T10:36:45.588Z,2.20
2024-05-09T10:39:38.412Z,2.10
2024-05-09T10:42:24.969Z,2.30
2024-05-09T10:45:19.113Z,2.57
2024-05-09T10:48:06.183Z,2.33
2024-05-09T10:50:54.775Z,2.07
2024-05-09T10:53:42.307Z,2.20
2024-05-09T10:56:30.963Z,1.93
2024-05-09T10:59:16.857Z,2.00
2024-05-09T11:02:09.606Z,3.40
2024-05-09T11:04:56.161Z,2.40
2024-05-09T11:07:44.756Z,1.97
2024-05-09T11:10:34.072Z,2.30
2024-05-09T11:13:30.244Z,2.47
2024-05-09T11:16:21.042Z,2.30
2024-05-09T11:19:15.489Z,2.17
2024-05-09T11:22:02.306Z,1.97
2024-05-09T11:24:52.747Z,2.43
2024-05-09T11:27:41.151Z,2.00
2024-05-09T11:30:34.872Z,2.00
2024-05-09T11:33:21.144Z,2.03
2024-05-09T11:36:13.328Z,1.97
2024-05-09T11:38:59.025Z,2.20
2024-05-09T11:41:47.654Z,2.17
2024-05-09T11:44:33.960Z,2.40
2024-05-09T11:47:22.938Z,2.50
2024-05-09T11:50:13.119Z,2.40
2024-05-09T11:53:10.501Z,1.63
2024-05-09T11:55:56.244Z,2.00
2024-05-09T11:58:44.872Z,2.00
2024-05-09T12:01:30.973Z,2.07
2024-05-09T12:04:19.623Z,1.90
2024-05-09T12:07:05.399Z,2.07
2024-05-09T12:09:56.814Z,2.23
2024-05-09T12:12:42.748Z,1.90
2024-05-09T12:15:31.216Z,2.10
2024-05-09T12:18:17.192Z,2.37
2024-05-09T12:21:06.677Z,2.30
2024-05-09T12:23:55.303Z,2.33
2024-05-09T12:26:43.963Z,2.17
2024-05-09T12:29:36.199Z,2.30
2024-05-09T12:32:24.865Z,2.30
2024-05-09T12:35:14.141Z,2.20
2024-05-09T12:38:00.190Z,2.47
2024-05-09T12:40:48.749Z,2.20
2024-05-09T12:43:37.259Z,2.37
2024-05-09T12:46:25.959Z,2.23
2024-05-09T12:49:13.811Z,1.90
2024-05-09T12:52:04.100Z,2.23
2024-05-09T12:54:50.253Z,2.03
2024-05-09T12:57:38.916Z,2.30
2024-05-09T13:00:31.793Z,1.90
2024-05-09T13:03:22.811Z,2.47
2024-05-09T13:06:09.219Z,2.17
2024-05-09T13:08:58.020Z,1.93
2024-05-09T13:11:44.108Z,2.50
2024-05-09T13:14:32.445Z,2.50
2024-05-09T13:17:21.759Z,2.20
2024-05-09T13:20:18.914Z,2.20
2024-05-09T13:23:12.085Z,2.13
2024-05-09T13:26:00.904Z,2.23
2024-05-09T13:28:46.518Z,3.00
2024-05-09T13:31:34.875Z,2.07
2024-05-09T13:34:23.383Z,2.20
2024-05-09T13:37:12.675Z,2.30
2024-05-09T13:39:59.159Z,2.40
2024-05-09T13:42:48.841Z,2.07
2024-05-09T13:45:35.553Z,2.30
2024-05-09T13:48:24.028Z,2.27
2024-05-09T13:51:12.604Z,2.30
2024-05-09T13:54:02.170Z,2.50
2024-05-09T13:56:50.603Z,2.07
2024-05-09T13:59:43.238Z,2.40
2024-05-09T14:02:39.551Z,2.30
2024-05-09T14:05:29.462Z,2.30
2024-05-09T14:08:20.622Z,2.37
2024-05-09T14:11:11.643Z,2.60
2024-05-09T14:13:58.627Z,2.37
2024-05-09T14:16:48.725Z,2.00
2024-05-09T14:19:35.982Z,2.13
2024-05-09T14:22:27.182Z,1.90
2024-05-09T14:25:37.827Z,2.20
2024-05-09T14:28:30.828Z,2.10
2024-05-09T14:31:17.834Z,2.20
2024-05-09T14:34:08.524Z,2.17
2024-05-09T14:36:56.084Z,2.73
2024-05-09T14:39:47.096Z,2.20
2024-05-09T14:42:42.007Z,2.20
2024-05-09T14:45:31.845Z,2.23
2024-05-09T14:48:20.528Z,2.10
2024-05-09T14:51:10.390Z,2.00
2024-05-09T14:53:57.547Z,2.17
2024-05-09T14:56:55.584Z,2.20
2024-05-09T14:59:46.842Z,2.10
2024-05-09T15:02:38.626Z,2.13
2024-05-09T15:05:26.915Z,1.90
2024-05-09T15:08:18.633Z,1.83
2024-05-09T15:11:08.403Z,2.10
2024-05-09T15:13:58.175Z,2.37
2024-05-09T15:16:49.290Z,2.03
2024-05-09T15:19:48.329Z,2.03
2024-05-09T15:22:41.545Z,2.20
2024-05-09T15:25:34.513Z,2.47
2024-05-09T15:28:33.839Z,2.33
2024-05-09T15:31:42.025Z,2.20
2024-05-09T15:34:32.295Z,2.33
2024-05-09T15:37:30.654Z,2.07
2024-05-09T15:40:26.395Z,2.33
2024-05-09T15:43:25.759Z,2.00
2024-05-09T15:46:17.126Z,2.27
2024-05-09T15:49:04.931Z,2.10
2024-05-09T15:52:02.656Z,2.00
2024-05-09T15:54:49.672Z,2.00
2024-05-09T15:57:46.801Z,2.63
2024-05-09T16:00:38.519Z,2.40
2024-05-09T16:03:31.543Z,2.00
2024-05-09T16:06:17.324Z,2.50
2024-05-09T16:09:14.884Z,2.17
2024-05-09T16:12:08.164Z,2.53
2024-05-09T16:15:00.944Z,2.07
2024-05-09T16:17:55.521Z,2.13
2024-05-09T16:20:50.423Z,2.30
2024-05-09T16:23:44.048Z,2.30
2024-05-09T16:26:37.262Z,2.10
2024-05-09T16:29:28.468Z,2.10
2024-05-09T16:32:19.200Z,1.90
2024-05-09T16:35:07.085Z,2.17
2024-05-09T16:37:57.890Z,2.10
2024-05-09T16:40:44.568Z,2.23
2024-05-09T16:43:36.158Z,2.60
2024-05-09T16:46:22.327Z,2.40
2024-05-09T16:49:11.178Z,2.10
2024-05-09T16:52:00.275Z,2.13
2024-05-09T16:54:46.285Z,2.30
2024-05-09T16:57:34.956Z,2.10
2024-05-09T17:00:34.904Z,2.40
2024-05-09T17:03:29.280Z,2.10
2024-05-09T17:06:15.441Z,2.10
2024-05-09T17:09:08.617Z,2.07
2024-05-09T17:12:00.638Z,2.23
2024-05-09T17:14:49.327Z,2.47
2024-05-09T17:17:41.033Z,2.30
2024-05-09T17:20:34.408Z,2.13
2024-05-09T17:23:22.696Z,2.37
2024-05-09T17:26:11.192Z,2.20
2024-05-09T17:28:57.345Z,2.73
2024-05-09T17:31:45.909Z,3.27
2024-05-09T17:34:34.754Z,2.47
2024-05-09T17:37:23.677Z,2.30
2024-05-09T17:40:16.902Z,2.20
2024-05-09T17:43:06.928Z,2.40
2024-05-09T17:45:54.509Z,2.30
2024-05-09T17:48:43.056Z,2.23
2024-05-09T17:51:32.244Z,2.47
2024-05-09T17:54:20.754Z,2.17
2024-05-09T17:57:06.841Z,2.50
2024-05-09T17:59:55.913Z,2.53
2024-05-09T18:02:43.011Z,2.50
2024-05-09T18:05:31.989Z,2.40
2024-05-09T18:08:20.777Z,2.37
2024-05-09T18:11:09.766Z,2.30
2024-05-09T18:13:56.504Z,2.60
2024-05-09T18:16:45.116Z,2.53
2024-05-09T18:19:31.036Z,2.40
2024-05-09T18:22:19.981Z,2.60
2024-05-09T18:25:09.246Z,2.70
2024-05-09T18:27:58.276Z,2.30
2024-05-09T18:30:44.392Z,1.80
2024-05-09T18:33:33.204Z,2.90
2024-05-09T18:36:19.581Z,6.07
2024-05-09T18:39:08.974Z,3.53
2024-05-09T18:42:00.870Z,3.73
2024-05-09T18:44:46.692Z,2.80
2024-05-09T18:47:35.643Z,3.00
2024-05-09T18:50:31.681Z,2.93
2024-05-09T18:53:24.503Z,2.90
2024-05-09T18:56:10.653Z,3.13
2024-05-09T18:59:02.160Z,3.00
2024-05-09T19:01:48.284Z,3.20
2024-05-09T19:04:37.364Z,3.40
2024-05-09T19:07:23.847Z,3.17
2024-05-09T19:10:21.797Z,3.17
2024-05-09T19:13:12.280Z,3.10
2024-05-09T19:16:05.037Z,3.07
2024-05-09T19:18:51.614Z,3.50
2024-05-09T19:21:42.849Z,3.27
2024-05-09T19:24:29.323Z,3.13
2024-05-09T19:27:18.107Z,3.60
2024-05-09T19:30:05.714Z,3.50
2024-05-09T19:33:00.927Z,3.23
2024-05-09T19:35:46.846Z,3.53
2024-05-09T19:38:35.609Z,3.40
2024-05-09T19:41:22.151Z,3.33
2024-05-09T19:44:10.453Z,3.27
2024-05-09T19:46:56.333Z,3.13
2024-05-09T19:49:47.607Z,3.20
2024-05-09T19:52:33.644Z,3.37
2024-05-09T19:55:22.043Z,3.30
2024-05-09T19:58:09.148Z,3.60
2024-05-09T20:00:57.963Z,3.87
2024-05-09T20:03:43.961Z,3.53
2024-05-09T20:06:35.120Z,3.40
2024-05-09T20:09:21.239Z,4.07
2024-05-09T20:12:10.095Z,3.80
2024-05-09T20:14:55.970Z,3.90
2024-05-09T20:17:44.741Z,3.27
2024-05-09T20:20:37.559Z,3.10
2024-05-09T20:23:32.640Z,4.00
2024-05-09T20:26:18.477Z,3.63
2024-05-09T20:29:07.204Z,4.40
2024-05-09T20:31:53.295Z,4.47
2024-05-09T20:34:42.563Z,4.07
2024-05-09T20:37:28.660Z,4.43
2024-05-09T20:40:28.263Z,4.30
2024-05-09T20:43:18.402Z,4.43
2024-05-09T20:46:07.055Z,4.60
2024-05-09T20:48:53.452Z,4.20
2024-05-09T20:51:42.363Z,4.40
2024-05-09T20:54:28.327Z,5.33
2024-05-09T20:57:22.286Z,4.37
2024-05-09T21:00:15.031Z,4.43
2024-05-09T21:03:07.847Z,4.50
2024-05-09T21:05:54.216Z,4.40
2024-05-09T21:08:42.672Z,5.30
2024-05-09T21:11:28.808Z,4.80
2024-05-09T21:14:20.070Z,4.53
2024-05-09T21:17:05.917Z,5.17
2024-05-09T21:19:54.556Z,4.87
2024-05-09T21:22:40.570Z,5.77
2024-05-09T21:25:29.252Z,4.93
2024-05-09T21:28:15.332Z,5.07
2024-05-09T21:31:06.670Z,4.57
2024-05-09T21:33:53.275Z,4.67
2024-05-09T21:36:41.681Z,4.90
2024-05-09T21:39:27.813Z,4.63
2024-05-09T21:42:16.344Z,4.80
2024-05-09T21:45:02.518Z,4.80
2024-05-09T21:47:53.964Z,5.07
2024-05-09T21:50:42.004Z,5.60
2024-05-09T21:53:30.743Z,5.63
2024-05-09T21:56:16.725Z,5.40
2024-05-09T21:59:05.493Z,4.90
2024-05-09T22:01:51.561Z,5.63
2024-05-09T22:04:42.809Z,4.70
2024-05-09T22:07:28.883Z,5.17
2024-05-09T22:10:25.695Z,4.80
2024-05-09T22:13:19.007Z,4.90
2024-05-09T22:16:08.424Z,4.83
2024-05-09T22:18:54.774Z,4.77
2024-05-09T22:21:46.070Z,5.40
2024-05-09T22:24:32.116Z,4.67
2024-05-09T22:27:20.730Z,5.30
2024-05-09T22:30:11.767Z,5.13
2024-05-09T22:33:04.080Z,4.87
2024-05-09T22:35:51.366Z,5.83
2024-05-09T22:38:53.816Z,5.70
2024-05-09T22:41:42.955Z,5.80
2024-05-09T22:44:35.089Z,5.43
2024-05-09T22:47:24.120Z,5.77
2024-05-09T22:50:18.663Z,6.00
2024-05-09T22:53:14.218Z,5.60
2024-05-09T22:56:08.288Z,5.47
2024-05-09T22:58:58.844Z,5.30
2024-05-09T23:01:47.288Z,5.53
2024-05-09T23:04:36.076Z,5.70
2024-05-09T23:07:22.174Z,6.10
2024-05-09T23:10:17.202Z,6.37
2024-05-09T23:13:10.447Z,6.00
2024-05-09T23:15:59.074Z,5.60
2024-05-09T23:18:45.248Z,5.70
2024-05-09T23:21:33.803Z,5.47
2024-05-09T23:24:19.815Z,6.17
2024-05-09T23:27:08.575Z,5.73
2024-05-09T23:30:00.223Z,5.50
2024-05-09T23:32:46.147Z,5.37
2024-05-09T23:35:34.799Z,5.87
2024-05-09T23:38:23.766Z,5.87
2024-05-09T23:41:13.023Z,5.97
2024-05-09T23:43:59.056Z,5.60
2024-05-09T23:46:50.265Z,6.27
2024-05-09T23:49:36.192Z,6.10
2024-05-09T23:52:27.329Z,5.83
2024-05-09T23:55:13.816Z,5.77
2024-05-09T23:58:02.546Z,7.17
